sensor_id;sensor_type;location;lat;lon;timestamp;P1;durP1;ratioP1;P2;durP2;ratioP2
12288;SDS011;6207;49.308;7.336;2022-11-20T00:01:11;18.63;;;14.27;;
12288;SDS011;6207;49.308;7.336;2022-11-20T00:03:48;16.80;;;14.20;;
12288;SDS011;6207;49.308;7.336;2022-11-20T00:06:16;21.53;;;14.83;;
12288;SDS011;6207;49.308;7.336;2022-11-20T00:08:45;19.60;;;16.47;;
12288;SDS011;6207;49.308;7.336;2022-11-20T00:11:22;18.23;;;14.70;;
12288;SDS011;6207;49.308;7.336;2022-11-20T00:13:50;18.13;;;14.10;;
12288;SDS011;6207;49.308;7.336;2022-11-20T00:16:19;17.40;;;14.77;;
12288;SDS011;6207;49.308;7.336;2022-11-20T00:18:48;17.33;;;15.50;;
12288;SDS011;6207;49.308;7.336;2022-11-20T00:21:16;18.03;;;14.33;;
12288;SDS011;6207;49.308;7.336;2022-11-20T00:23:47;19.43;;;15.93;;
12288;SDS011;6207;49.308;7.336;2022-11-20T00:26:15;17.43;;;15.50;;
12288;SDS011;6207;49.308;7.336;2022-11-20T00:28:44;17.37;;;14.50;;
12288;SDS011;6207;49.308;7.336;2022-11-20T00:31:19;19.77;;;14.17;;
12288;SDS011;6207;49.308;7.336;2022-11-20T00:33:46;17.00;;;14.60;;
12288;SDS011;6207;49.308;7.336;2022-11-20T00:36:15;16.90;;;13.67;;
12288;SDS011;6207;49.308;7.336;2022-11-20T00:38:46;18.70;;;13.77;;
12288;SDS011;6207;49.308;7.336;2022-11-20T00:41:17;20.70;;;14.77;;
12288;SDS011;6207;49.308;7.336;2022-11-20T00:43:43;17.53;;;13.93;;
12288;SDS011;6207;49.308;7.336;2022-11-20T00:46:12;18.47;;;12.90;;
12288;SDS011;6207;49.308;7.336;2022-11-20T00:48:41;18.10;;;14.33;;
12288;SDS011;6207;49.308;7.336;2022-11-20T00:51:08;14.30;;;12.90;;
12288;SDS011;6207;49.308;7.336;2022-11-20T00:53:37;15.13;;;11.90;;
12288;SDS011;6207;49.308;7.336;2022-11-20T00:56:05;14.73;;;13.07;;
12288;SDS011;6207;49.308;7.336;2022-11-20T00:58:34;15.30;;;12.17;;
12288;SDS011;6207;49.308;7.336;2022-11-20T01:01:07;12.13;;;10.90;;
12288;SDS011;6207;49.308;7.336;2022-11-20T01:03:39;13.20;;;11.80;;
12288;SDS011;6207;49.308;7.336;2022-11-20T01:06:12;18.20;;;14.33;;
12288;SDS011;6207;49.308;7.336;2022-11-20T01:08:43;15.47;;;13.27;;
12288;SDS011;6207;49.308;7.336;2022-11-20T01:11:12;17.13;;;13.43;;
12288;SDS011;6207;49.308;7.336;2022-11-20T01:13:41;13.73;;;12.30;;
12288;SDS011;6207;49.308;7.336;2022-11-20T01:16:10;17.23;;;13.70;;
12288;SDS011;6207;49.308;7.336;2022-11-20T01:18:41;16.63;;;14.17;;
12288;SDS011;6207;49.308;7.336;2022-11-20T01:21:19;17.43;;;13.77;;
12288;SDS011;6207;49.308;7.336;2022-11-20T01:23:48;15.37;;;13.33;;
12288;SDS011;6207;49.308;7.336;2022-11-20T01:26:21;17.00;;;13.53;;
12288;SDS011;6207;49.308;7.336;2022-11-20T01:28:49;15.27;;;13.63;;
12288;SDS011;6207;49.308;7.336;2022-11-20T01:31:22;15.13;;;12.90;;
12288;SDS011;6207;49.308;7.336;2022-11-20T01:33:54;16.03;;;13.73;;
12288;SDS011;6207;49.308;7.336;2022-11-20T01:36:24;15.67;;;13.87;;
12288;SDS011;6207;49.308;7.336;2022-11-20T01:38:53;15.70;;;12.70;;
12288;SDS011;6207;49.308;7.336;2022-11-20T01:41:21;14.37;;;12.77;;
12288;SDS011;6207;49.308;7.336;2022-11-20T01:44:08;16.20;;;13.33;;
12288;SDS011;6207;49.308;7.336;2022-11-20T01:46:38;14.83;;;13.37;;
12288;SDS011;6207;49.308;7.336;2022-11-20T01:49:22;15.53;;;13.33;;
12288;SDS011;6207;49.308;7.336;2022-11-20T01:51:55;15.47;;;13.77;;
12288;SDS011;6207;49.308;7.336;2022-11-20T01:54:28;16.83;;;13.43;;
12288;SDS011;6207;49.308;7.336;2022-11-20T01:57:02;15.13;;;12.43;;
12288;SDS011;6207;49.308;7.336;2022-11-20T01:59:34;14.60;;;13.13;;
12288;SDS011;6207;49.308;7.336;2022-11-20T02:02:05;15.90;;;13.27;;
12288;SDS011;6207;49.308;7.336;2022-11-20T02:04:31;15.90;;;12.77;;
12288;SDS011;6207;49.308;7.336;2022-11-20T02:07:02;14.43;;;12.90;;
12288;SDS011;6207;49.308;7.336;2022-11-20T02:09:31;14.23;;;12.70;;
12288;SDS011;6207;49.308;7.336;2022-11-20T02:11:57;14.03;;;12.60;;
12288;SDS011;6207;49.308;7.336;2022-11-20T02:14:25;15.40;;;13.60;;
12288;SDS011;6207;49.308;7.336;2022-11-20T02:16:53;15.20;;;12.80;;
12288;SDS011;6207;49.308;7.336;2022-11-20T02:19:26;14.00;;;12.60;;
12288;SDS011;6207;49.308;7.336;2022-11-20T02:24:39;13.47;;;12.13;;
12288;SDS011;6207;49.308;7.336;2022-11-20T02:27:08;13.43;;;12.03;;
12288;SDS011;6207;49.308;7.336;2022-11-20T02:32:20;13.33;;;12.03;;
12288;SDS011;6207;49.308;7.336;2022-11-20T02:34:52;16.47;;;12.80;;
12288;SDS011;6207;49.308;7.336;2022-11-20T02:37:20;12.93;;;11.73;;
12288;SDS011;6207;49.308;7.336;2022-11-20T02:39:48;13.20;;;12.00;;
12288;SDS011;6207;49.308;7.336;2022-11-20T02:42:17;13.33;;;11.93;;
12288;SDS011;6207;49.308;7.336;2022-11-20T02:44:44;14.07;;;12.37;;
12288;SDS011;6207;49.308;7.336;2022-11-20T02:47:11;14.63;;;12.33;;
12288;SDS011;6207;49.308;7.336;2022-11-20T02:49:38;13.63;;;12.27;;
12288;SDS011;6207;49.308;7.336;2022-11-20T02:52:05;12.73;;;11.60;;
12288;SDS011;6207;49.308;7.336;2022-11-20T02:54:31;13.70;;;12.37;;
12288;SDS011;6207;49.308;7.336;2022-11-20T02:56:58;13.30;;;11.40;;
12288;SDS011;6207;49.308;7.336;2022-11-20T02:59:25;12.23;;;11.07;;
12288;SDS011;6207;49.308;7.336;2022-11-20T03:01:52;13.27;;;12.03;;
12288;SDS011;6207;49.308;7.336;2022-11-20T03:04:18;13.30;;;12.10;;
12288;SDS011;6207;49.308;7.336;2022-11-20T03:06:45;12.37;;;11.37;;
12288;SDS011;6207;49.308;7.336;2022-11-20T03:09:12;12.97;;;11.83;;
12288;SDS011;6207;49.308;7.336;2022-11-20T03:11:39;12.20;;;11.00;;
12288;SDS011;6207;49.308;7.336;2022-11-20T03:14:06;12.93;;;11.60;;
12288;SDS011;6207;49.308;7.336;2022-11-20T03:16:33;12.90;;;11.70;;
12288;SDS011;6207;49.308;7.336;2022-11-20T03:18:59;12.30;;;11.20;;
12288;SDS011;6207;49.308;7.336;2022-11-20T03:21:26;12.77;;;11.37;;
12288;SDS011;6207;49.308;7.336;2022-11-20T03:23:54;11.80;;;10.87;;
12288;SDS011;6207;49.308;7.336;2022-11-20T03:26:22;12.57;;;11.33;;
12288;SDS011;6207;49.308;7.336;2022-11-20T03:28:51;12.27;;;11.03;;
12288;SDS011;6207;49.308;7.336;2022-11-20T03:31:22;12.97;;;11.67;;
12288;SDS011;6207;49.308;7.336;2022-11-20T03:33:51;12.17;;;11.10;;
12288;SDS011;6207;49.308;7.336;2022-11-20T03:36:18;12.13;;;11.03;;
12288;SDS011;6207;49.308;7.336;2022-11-20T03:38:46;11.50;;;10.40;;
12288;SDS011;6207;49.308;7.336;2022-11-20T03:41:19;11.30;;;10.50;;
12288;SDS011;6207;49.308;7.336;2022-11-20T03:43:47;11.57;;;10.77;;
12288;SDS011;6207;49.308;7.336;2022-11-20T03:46:15;11.67;;;10.67;;
12288;SDS011;6207;49.308;7.336;2022-11-20T03:48:42;12.87;;;11.80;;
12288;SDS011;6207;49.308;7.336;2022-11-20T03:51:17;11.90;;;10.93;;
12288;SDS011;6207;49.308;7.336;2022-11-20T03:53:49;11.77;;;10.87;;
12288;SDS011;6207;49.308;7.336;2022-11-20T03:56:18;11.97;;;10.87;;
12288;SDS011;6207;49.308;7.336;2022-11-20T03:58:50;11.10;;;10.30;;
12288;SDS011;6207;49.308;7.336;2022-11-20T04:01:21;10.70;;;9.93;;
12288;SDS011;6207;49.308;7.336;2022-11-20T04:03:51;10.90;;;10.20;;
12288;SDS011;6207;49.308;7.336;2022-11-20T04:06:20;10.77;;;10.07;;
12288;SDS011;6207;49.308;7.336;2022-11-20T04:08:51;10.93;;;10.10;;
12288;SDS011;6207;49.308;7.336;2022-11-20T04:11:22;11.30;;;10.43;;
12288;SDS011;6207;49.308;7.336;2022-11-20T04:13:52;10.00;;;9.23;;
12288;SDS011;6207;49.308;7.336;2022-11-20T04:16:20;10.20;;;9.40;;
12288;SDS011;6207;49.308;7.336;2022-11-20T04:18:51;10.70;;;9.60;;
12288;SDS011;6207;49.308;7.336;2022-11-20T04:21:23;9.67;;;8.93;;
12288;SDS011;6207;49.308;7.336;2022-11-20T04:23:50;9.77;;;8.97;;
12288;SDS011;6207;49.308;7.336;2022-11-20T04:26:19;9.90;;;9.00;;
12288;SDS011;6207;49.308;7.336;2022-11-20T04:28:46;9.43;;;8.63;;
12288;SDS011;6207;49.308;7.336;2022-11-20T04:31:14;9.67;;;8.87;;
12288;SDS011;6207;49.308;7.336;2022-11-20T04:33:43;9.67;;;8.70;;
12288;SDS011;6207;49.308;7.336;2022-11-20T04:36:10;8.90;;;8.20;;
12288;SDS011;6207;49.308;7.336;2022-11-20T04:38:39;9.33;;;8.47;;
12288;SDS011;6207;49.308;7.336;2022-11-20T04:41:14;9.47;;;8.60;;
12288;SDS011;6207;49.308;7.336;2022-11-20T04:43:48;8.90;;;8.10;;
12288;SDS011;6207;49.308;7.336;2022-11-20T04:46:17;8.43;;;7.63;;
12288;SDS011;6207;49.308;7.336;2022-11-20T04:48:45;9.00;;;8.13;;
12288;SDS011;6207;49.308;7.336;2022-11-20T04:51:21;9.30;;;8.40;;
12288;SDS011;6207;49.308;7.336;2022-11-20T04:53:48;9.27;;;8.40;;
12288;SDS011;6207;49.308;7.336;2022-11-20T04:56:15;9.07;;;8.20;;
12288;SDS011;6207;49.308;7.336;2022-11-20T04:58:41;9.10;;;8.30;;
12288;SDS011;6207;49.308;7.336;2022-11-20T05:01:10;8.93;;;8.03;;
12288;SDS011;6207;49.308;7.336;2022-11-20T05:03:39;9.50;;;8.60;;
12288;SDS011;6207;49.308;7.336;2022-11-20T05:06:08;9.27;;;8.47;;
12288;SDS011;6207;49.308;7.336;2022-11-20T05:08:36;9.03;;;8.20;;
12288;SDS011;6207;49.308;7.336;2022-11-20T05:11:04;9.60;;;8.63;;
12288;SDS011;6207;49.308;7.336;2022-11-20T05:13:32;9.10;;;8.30;;
12288;SDS011;6207;49.308;7.336;2022-11-20T05:16:04;8.97;;;8.17;;
12288;SDS011;6207;49.308;7.336;2022-11-20T05:18:39;9.00;;;8.20;;
12288;SDS011;6207;49.308;7.336;2022-11-20T05:21:07;9.80;;;8.80;;
12288;SDS011;6207;49.308;7.336;2022-11-20T05:23:35;9.13;;;8.23;;
12288;SDS011;6207;49.308;7.336;2022-11-20T05:26:03;9.23;;;8.33;;
12288;SDS011;6207;49.308;7.336;2022-11-20T05:28:31;8.67;;;7.90;;
12288;SDS011;6207;49.308;7.336;2022-11-20T05:31:06;9.43;;;8.40;;
12288;SDS011;6207;49.308;7.336;2022-11-20T05:33:38;9.37;;;8.40;;
12288;SDS011;6207;49.308;7.336;2022-11-20T05:36:06;10.97;;;9.20;;
12288;SDS011;6207;49.308;7.336;2022-11-20T05:38:34;9.70;;;8.80;;
12288;SDS011;6207;49.308;7.336;2022-11-20T05:41:14;9.53;;;8.53;;
12288;SDS011;6207;49.308;7.336;2022-11-20T05:43:43;9.90;;;8.90;;
12288;SDS011;6207;49.308;7.336;2022-11-20T05:46:13;9.37;;;8.57;;
12288;SDS011;6207;49.308;7.336;2022-11-20T05:48:42;10.27;;;9.27;;
12288;SDS011;6207;49.308;7.336;2022-11-20T05:51:10;10.33;;;9.33;;
12288;SDS011;6207;49.308;7.336;2022-11-20T05:53:39;11.73;;;9.50;;
12288;SDS011;6207;49.308;7.336;2022-11-20T05:56:15;10.00;;;9.00;;
12288;SDS011;6207;49.308;7.336;2022-11-20T05:58:43;11.00;;;8.87;;
12288;SDS011;6207;49.308;7.336;2022-11-20T06:01:15;11.27;;;10.13;;
12288;SDS011;6207;49.308;7.336;2022-11-20T06:03:44;14.20;;;10.70;;
12288;SDS011;6207;49.308;7.336;2022-11-20T06:06:14;10.67;;;9.57;;
12288;SDS011;6207;49.308;7.336;2022-11-20T06:08:41;10.70;;;9.60;;
12288;SDS011;6207;49.308;7.336;2022-11-20T06:11:10;10.27;;;9.03;;
12288;SDS011;6207;49.308;7.336;2022-11-20T06:13:38;9.27;;;8.37;;
12288;SDS011;6207;49.308;7.336;2022-11-20T06:16:08;9.10;;;8.20;;
12288;SDS011;6207;49.308;7.336;2022-11-20T06:18:36;9.40;;;8.07;;
12288;SDS011;6207;49.308;7.336;2022-11-20T06:21:05;10.30;;;8.90;;
12288;SDS011;6207;49.308;7.336;2022-11-20T06:23:34;10.07;;;9.07;;
12288;SDS011;6207;49.308;7.336;2022-11-20T06:29:14;9.90;;;8.90;;
12288;SDS011;6207;49.308;7.336;2022-11-20T06:31:58;11.10;;;9.87;;
12288;SDS011;6207;49.308;7.336;2022-11-20T06:34:25;12.00;;;9.83;;
12288;SDS011;6207;49.308;7.336;2022-11-20T06:36:52;11.60;;;10.20;;
12288;SDS011;6207;49.308;7.336;2022-11-20T06:39:19;11.90;;;9.53;;
12288;SDS011;6207;49.308;7.336;2022-11-20T06:41:46;11.17;;;9.60;;
12288;SDS011;6207;49.308;7.336;2022-11-20T06:44:13;15.23;;;11.00;;
12288;SDS011;6207;49.308;7.336;2022-11-20T06:46:39;12.60;;;11.13;;
12288;SDS011;6207;49.308;7.336;2022-11-20T06:49:06;14.60;;;11.40;;
12288;SDS011;6207;49.308;7.336;2022-11-20T06:51:33;16.37;;;10.83;;
12288;SDS011;6207;49.308;7.336;2022-11-20T06:54:00;14.80;;;11.97;;
12288;SDS011;6207;49.308;7.336;2022-11-20T06:56:27;15.37;;;12.13;;
12288;SDS011;6207;49.308;7.336;2022-11-20T06:58:54;14.17;;;12.57;;
12288;SDS011;6207;49.308;7.336;2022-11-20T07:01:20;13.53;;;11.57;;
12288;SDS011;6207;49.308;7.336;2022-11-20T07:03:48;14.50;;;12.53;;
12288;SDS011;6207;49.308;7.336;2022-11-20T07:06:19;16.57;;;12.17;;
12288;SDS011;6207;49.308;7.336;2022-11-20T07:08:46;15.90;;;12.67;;
12288;SDS011;6207;49.308;7.336;2022-11-20T07:11:13;13.37;;;11.93;;
12288;SDS011;6207;49.308;7.336;2022-11-20T07:13:40;16.50;;;12.87;;
12288;SDS011;6207;49.308;7.336;2022-11-20T07:16:07;14.67;;;12.73;;
12288;SDS011;6207;49.308;7.336;2022-11-20T07:18:34;14.87;;;12.13;;
12288;SDS011;6207;49.308;7.336;2022-11-20T07:21:02;19.13;;;13.80;;
12288;SDS011;6207;49.308;7.336;2022-11-20T07:23:30;17.70;;;13.73;;
12288;SDS011;6207;49.308;7.336;2022-11-20T07:25:57;14.40;;;12.93;;
12288;SDS011;6207;49.308;7.336;2022-11-20T07:28:24;15.23;;;13.10;;
12288;SDS011;6207;49.308;7.336;2022-11-20T07:30:51;16.53;;;12.90;;
12288;SDS011;6207;49.308;7.336;2022-11-20T07:33:19;16.00;;;13.80;;
12288;SDS011;6207;49.308;7.336;2022-11-20T07:35:46;13.73;;;12.30;;
12288;SDS011;6207;49.308;7.336;2022-11-20T07:38:13;14.83;;;13.23;;
12288;SDS011;6207;49.308;7.336;2022-11-20T07:40:39;15.67;;;13.93;;
12288;SDS011;6207;49.308;7.336;2022-11-20T07:43:06;15.20;;;13.57;;
12288;SDS011;6207;49.308;7.336;2022-11-20T07:45:33;15.23;;;13.30;;
12288;SDS011;6207;49.308;7.336;2022-11-20T07:48:00;14.67;;;13.17;;
12288;SDS011;6207;49.308;7.336;2022-11-20T07:50:27;15.00;;;13.40;;
12288;SDS011;6207;49.308;7.336;2022-11-20T07:53:00;14.77;;;13.30;;
12288;SDS011;6207;49.308;7.336;2022-11-20T07:55:27;13.63;;;12.33;;
12288;SDS011;6207;49.308;7.336;2022-11-20T07:57:55;13.97;;;12.50;;
12288;SDS011;6207;49.308;7.336;2022-11-20T08:00:22;18.23;;;15.40;;
12288;SDS011;6207;49.308;7.336;2022-11-20T08:02:49;16.13;;;14.30;;
12288;SDS011;6207;49.308;7.336;2022-11-20T08:05:16;17.97;;;15.23;;
12288;SDS011;6207;49.308;7.336;2022-11-20T08:07:43;23.07;;;20.67;;
12288;SDS011;6207;49.308;7.336;2022-11-20T08:10:12;16.30;;;12.53;;
12288;SDS011;6207;49.308;7.336;2022-11-20T08:12:45;18.37;;;16.57;;
12288;SDS011;6207;49.308;7.336;2022-11-20T08:15:32;15.23;;;13.47;;
12288;SDS011;6207;49.308;7.336;2022-11-20T08:18:00;15.87;;;14.30;;
12288;SDS011;6207;49.308;7.336;2022-11-20T08:20:48;14.47;;;12.83;;
12288;SDS011;6207;49.308;7.336;2022-11-20T08:23:14;13.77;;;12.43;;
12288;SDS011;6207;49.308;7.336;2022-11-20T08:25:41;12.93;;;11.60;;
12288;SDS011;6207;49.308;7.336;2022-11-20T08:28:09;12.83;;;11.73;;
12288;SDS011;6207;49.308;7.336;2022-11-20T08:30:46;12.60;;;11.27;;
12288;SDS011;6207;49.308;7.336;2022-11-20T08:33:13;14.00;;;12.70;;
12288;SDS011;6207;49.308;7.336;2022-11-20T08:35:40;14.20;;;12.83;;
12288;SDS011;6207;49.308;7.336;2022-11-20T08:38:08;13.27;;;11.47;;
12288;SDS011;6207;49.308;7.336;2022-11-20T08:40:35;16.43;;;14.93;;
12288;SDS011;6207;49.308;7.336;2022-11-20T08:43:02;13.07;;;11.87;;
12288;SDS011;6207;49.308;7.336;2022-11-20T08:45:28;13.13;;;11.73;;
12288;SDS011;6207;49.308;7.336;2022-11-20T08:48:00;12.70;;;11.57;;
12288;SDS011;6207;49.308;7.336;2022-11-20T08:50:28;13.20;;;11.90;;
12288;SDS011;6207;49.308;7.336;2022-11-20T08:52:55;16.30;;;11.53;;
12288;SDS011;6207;49.308;7.336;2022-11-20T08:55:27;13.47;;;12.10;;
12288;SDS011;6207;49.308;7.336;2022-11-20T08:57:54;13.00;;;11.77;;
12288;SDS011;6207;49.308;7.336;2022-11-20T09:00:20;12.70;;;11.50;;
12288;SDS011;6207;49.308;7.336;2022-11-20T09:02:47;12.33;;;11.13;;
12288;SDS011;6207;49.308;7.336;2022-11-20T09:05:14;11.93;;;10.93;;
12288;SDS011;6207;49.308;7.336;2022-11-20T09:07:41;13.33;;;12.00;;
12288;SDS011;6207;49.308;7.336;2022-11-20T09:10:08;12.07;;;11.07;;
12288;SDS011;6207;49.308;7.336;2022-11-20T09:12:49;12.43;;;11.53;;
12288;SDS011;6207;49.308;7.336;2022-11-20T09:15:17;12.07;;;10.97;;
12288;SDS011;6207;49.308;7.336;2022-11-20T09:17:53;12.33;;;11.33;;
12288;SDS011;6207;49.308;7.336;2022-11-20T09:20:21;12.40;;;11.40;;
12288;SDS011;6207;49.308;7.336;2022-11-20T09:22:48;12.33;;;11.30;;
12288;SDS011;6207;49.308;7.336;2022-11-20T09:25:15;12.00;;;11.10;;
12288;SDS011;6207;49.308;7.336;2022-11-20T09:27:42;12.73;;;11.60;;
12288;SDS011;6207;49.308;7.336;2022-11-20T09:30:10;12.33;;;11.20;;
12288;SDS011;6207;49.308;7.336;2022-11-20T09:32:40;13.63;;;12.33;;
12288;SDS011;6207;49.308;7.336;2022-11-20T09:35:07;13.03;;;11.97;;
12288;SDS011;6207;49.308;7.336;2022-11-20T09:37:35;12.17;;;11.17;;
12288;SDS011;6207;49.308;7.336;2022-11-20T09:40:01;11.93;;;11.13;;
12288;SDS011;6207;49.308;7.336;2022-11-20T09:50:27;12.30;;;11.10;;
12288;SDS011;6207;49.308;7.336;2022-11-20T09:53:11;12.50;;;11.30;;
12288;SDS011;6207;49.308;7.336;2022-11-20T09:55:38;11.40;;;10.60;;
12288;SDS011;6207;49.308;7.336;2022-11-20T09:58:06;11.77;;;10.60;;
12288;SDS011;6207;49.308;7.336;2022-11-20T10:00:38;12.23;;;11.33;;
12288;SDS011;6207;49.308;7.336;2022-11-20T10:03:11;11.10;;;10.37;;
12288;SDS011;6207;49.308;7.336;2022-11-20T10:05:50;12.30;;;11.13;;
12288;SDS011;6207;49.308;7.336;2022-11-20T10:08:32;12.00;;;11.00;;
12288;SDS011;6207;49.308;7.336;2022-11-20T10:11:20;12.17;;;11.07;;
12288;SDS011;6207;49.308;7.336;2022-11-20T10:26:17;10.90;;;9.90;;
12288;SDS011;6207;49.308;7.336;2022-11-20T10:36:56;9.53;;;9.03;;
12288;SDS011;6207;49.308;7.336;2022-11-20T10:39:34;10.17;;;9.30;;
12288;SDS011;6207;49.308;7.336;2022-11-20T10:42:28;10.20;;;9.40;;
12288;SDS011;6207;49.308;7.336;2022-11-20T10:45:09;10.30;;;9.60;;
12288;SDS011;6207;49.308;7.336;2022-11-20T10:47:45;9.83;;;9.20;;
12288;SDS011;6207;49.308;7.336;2022-11-20T10:50:14;10.40;;;9.70;;
12288;SDS011;6207;49.308;7.336;2022-11-20T10:52:51;10.50;;;9.37;;
12288;SDS011;6207;49.308;7.336;2022-11-20T11:01:14;9.50;;;8.70;;
12288;SDS011;6207;49.308;7.336;2022-11-20T11:03:53;9.90;;;9.20;;
12288;SDS011;6207;49.308;7.336;2022-11-20T11:06:25;9.60;;;8.90;;
12288;SDS011;6207;49.308;7.336;2022-11-20T11:08:56;9.37;;;8.67;;
12288;SDS011;6207;49.308;7.336;2022-11-20T11:11:31;10.07;;;9.37;;
12288;SDS011;6207;49.308;7.336;2022-11-20T11:14:06;10.37;;;9.47;;
12288;SDS011;6207;49.308;7.336;2022-11-20T11:16:44;9.57;;;8.87;;
12288;SDS011;6207;49.308;7.336;2022-11-20T11:19:17;10.10;;;9.13;;
12288;SDS011;6207;49.308;7.336;2022-11-20T11:21:47;11.13;;;9.40;;
12288;SDS011;6207;49.308;7.336;2022-11-20T11:24:24;10.00;;;9.40;;
12288;SDS011;6207;49.308;7.336;2022-11-20T11:27:11;10.10;;;9.50;;
12288;SDS011;6207;49.308;7.336;2022-11-20T11:29:43;10.00;;;9.27;;
12288;SDS011;6207;49.308;7.336;2022-11-20T11:32:14;9.43;;;8.73;;
12288;SDS011;6207;49.308;7.336;2022-11-20T11:34:43;10.40;;;9.40;;
12288;SDS011;6207;49.308;7.336;2022-11-20T11:37:18;10.47;;;9.80;;
12288;SDS011;6207;49.308;7.336;2022-11-20T11:39:48;9.60;;;9.00;;
12288;SDS011;6207;49.308;7.336;2022-11-20T11:42:35;9.77;;;9.07;;
12288;SDS011;6207;49.308;7.336;2022-11-20T11:45:15;9.90;;;9.20;;
12288;SDS011;6207;49.308;7.336;2022-11-20T11:47:47;9.40;;;8.90;;
12288;SDS011;6207;49.308;7.336;2022-11-20T11:50:16;9.93;;;9.30;;
12288;SDS011;6207;49.308;7.336;2022-11-20T11:55:33;11.10;;;9.20;;
12288;SDS011;6207;49.308;7.336;2022-11-20T12:04:04;9.27;;;8.67;;
12288;SDS011;6207;49.308;7.336;2022-11-20T12:06:50;9.20;;;8.80;;
12288;SDS011;6207;49.308;7.336;2022-11-20T12:09:23;9.47;;;8.90;;
12288;SDS011;6207;49.308;7.336;2022-11-20T12:11:54;9.50;;;9.00;;
12288;SDS011;6207;49.308;7.336;2022-11-20T12:14:38;9.33;;;8.83;;
12288;SDS011;6207;49.308;7.336;2022-11-20T12:17:11;8.93;;;8.50;;
12288;SDS011;6207;49.308;7.336;2022-11-20T12:19:40;10.83;;;9.93;;
12288;SDS011;6207;49.308;7.336;2022-11-20T12:24:59;10.20;;;9.43;;
12288;SDS011;6207;49.308;7.336;2022-11-20T12:30:12;10.00;;;9.40;;
12288;SDS011;6207;49.308;7.336;2022-11-20T12:41:06;10.07;;;9.47;;
12288;SDS011;6207;49.308;7.336;2022-11-20T12:44:33;10.47;;;9.63;;
12288;SDS011;6207;49.308;7.336;2022-11-20T12:58:55;9.70;;;8.90;;
12288;SDS011;6207;49.308;7.336;2022-11-20T13:07:13;9.90;;;9.23;;
12288;SDS011;6207;49.308;7.336;2022-11-20T13:09:46;9.57;;;9.07;;
12288;SDS011;6207;49.308;7.336;2022-11-20T13:12:34;10.30;;;9.47;;
12288;SDS011;6207;49.308;7.336;2022-11-20T13:15:14;9.80;;;9.20;;
12288;SDS011;6207;49.308;7.336;2022-11-20T13:18:00;9.50;;;8.97;;
12288;SDS011;6207;49.308;7.336;2022-11-20T13:20:30;10.00;;;9.40;;
12288;SDS011;6207;49.308;7.336;2022-11-20T13:22:59;9.73;;;9.10;;
12288;SDS011;6207;49.308;7.336;2022-11-20T13:25:32;9.90;;;9.13;;
12288;SDS011;6207;49.308;7.336;2022-11-20T13:28:02;9.80;;;9.20;;
12288;SDS011;6207;49.308;7.336;2022-11-20T13:30:50;9.40;;;8.90;;
12288;SDS011;6207;49.308;7.336;2022-11-20T13:33:37;10.10;;;9.30;;
12288;SDS011;6207;49.308;7.336;2022-11-20T13:36:27;9.63;;;9.03;;
12288;SDS011;6207;49.308;7.336;2022-11-20T13:38:54;9.30;;;8.80;;
12288;SDS011;6207;49.308;7.336;2022-11-20T13:41:29;10.13;;;9.40;;
12288;SDS011;6207;49.308;7.336;2022-11-20T13:46:42;9.87;;;9.17;;
12288;SDS011;6207;49.308;7.336;2022-11-20T13:49:25;10.13;;;9.40;;
12288;SDS011;6207;49.308;7.336;2022-11-20T13:51:58;10.10;;;9.60;;
12288;SDS011;6207;49.308;7.336;2022-11-20T14:02:44;9.97;;;9.20;;
12288;SDS011;6207;49.308;7.336;2022-11-20T14:05:24;10.00;;;9.30;;
12288;SDS011;6207;49.308;7.336;2022-11-20T14:07:51;9.70;;;9.30;;
12288;SDS011;6207;49.308;7.336;2022-11-20T14:10:24;9.70;;;9.13;;
12288;SDS011;6207;49.308;7.336;2022-11-20T14:12:58;9.70;;;9.00;;
12288;SDS011;6207;49.308;7.336;2022-11-20T14:15:35;9.80;;;9.30;;
12288;SDS011;6207;49.308;7.336;2022-11-20T14:18:21;10.10;;;9.50;;
12288;SDS011;6207;49.308;7.336;2022-11-20T14:20:48;9.93;;;9.33;;
12288;SDS011;6207;49.308;7.336;2022-11-20T14:23:23;10.07;;;9.50;;
12288;SDS011;6207;49.308;7.336;2022-11-20T14:25:55;9.87;;;9.27;;
12288;SDS011;6207;49.308;7.336;2022-11-20T14:28:26;10.17;;;9.57;;
12288;SDS011;6207;49.308;7.336;2022-11-20T14:30:57;9.80;;;9.30;;
12288;SDS011;6207;49.308;7.336;2022-11-20T14:33:25;9.73;;;9.13;;
12288;SDS011;6207;49.308;7.336;2022-11-20T14:35:56;10.30;;;9.70;;
12288;SDS011;6207;49.308;7.336;2022-11-20T14:38:28;9.30;;;8.90;;
12288;SDS011;6207;49.308;7.336;2022-11-20T14:41:16;9.57;;;9.00;;
12288;SDS011;6207;49.308;7.336;2022-11-20T14:43:48;10.10;;;9.50;;
12288;SDS011;6207;49.308;7.336;2022-11-20T14:46:26;9.80;;;9.30;;
12288;SDS011;6207;49.308;7.336;2022-11-20T14:48:55;10.30;;;9.27;;
12288;SDS011;6207;49.308;7.336;2022-11-20T14:51:29;9.57;;;8.97;;
12288;SDS011;6207;49.308;7.336;2022-11-20T14:54:17;11.00;;;10.10;;
12288;SDS011;6207;49.308;7.336;2022-11-20T14:56:58;9.83;;;9.30;;
12288;SDS011;6207;49.308;7.336;2022-11-20T14:59:28;10.20;;;9.60;;
12288;SDS011;6207;49.308;7.336;2022-11-20T15:01:58;9.90;;;9.40;;
12288;SDS011;6207;49.308;7.336;2022-11-20T15:04:30;9.77;;;9.00;;
12288;SDS011;6207;49.308;7.336;2022-11-20T15:06:57;10.07;;;9.37;;
12288;SDS011;6207;49.308;7.336;2022-11-20T15:09:25;9.27;;;8.77;;
12288;SDS011;6207;49.308;7.336;2022-11-20T15:11:55;9.60;;;8.90;;
12288;SDS011;6207;49.308;7.336;2022-11-20T15:14:24;10.00;;;9.50;;
12288;SDS011;6207;49.308;7.336;2022-11-20T15:16:52;10.67;;;9.93;;
12288;SDS011;6207;49.308;7.336;2022-11-20T15:19:21;9.97;;;9.27;;
12288;SDS011;6207;49.308;7.336;2022-11-20T15:21:49;9.90;;;9.20;;
12288;SDS011;6207;49.308;7.336;2022-11-20T15:24:16;10.80;;;9.80;;
12288;SDS011;6207;49.308;7.336;2022-11-20T15:26:43;10.40;;;9.63;;
12288;SDS011;6207;49.308;7.336;2022-11-20T15:29:11;10.60;;;9.80;;
12288;SDS011;6207;49.308;7.336;2022-11-20T15:31:40;11.77;;;10.97;;
12288;SDS011;6207;49.308;7.336;2022-11-20T15:34:13;10.40;;;9.70;;
12288;SDS011;6207;49.308;7.336;2022-11-20T15:36:41;10.13;;;9.43;;
12288;SDS011;6207;49.308;7.336;2022-11-20T15:39:09;11.00;;;10.30;;
12288;SDS011;6207;49.308;7.336;2022-11-20T15:41:37;10.80;;;10.10;;
12288;SDS011;6207;49.308;7.336;2022-11-20T15:44:05;10.50;;;9.90;;
12288;SDS011;6207;49.308;7.336;2022-11-20T15:46:32;10.47;;;9.67;;
12288;SDS011;6207;49.308;7.336;2022-11-20T15:49:06;10.50;;;9.90;;
12288;SDS011;6207;49.308;7.336;2022-11-20T15:51:46;10.70;;;10.00;;
12288;SDS011;6207;49.308;7.336;2022-11-20T15:54:20;10.23;;;9.53;;
12288;SDS011;6207;49.308;7.336;2022-11-20T15:56:49;11.20;;;10.40;;
12288;SDS011;6207;49.308;7.336;2022-11-20T15:59:18;10.50;;;9.90;;
12288;SDS011;6207;49.308;7.336;2022-11-20T16:01:45;10.20;;;9.60;;
12288;SDS011;6207;49.308;7.336;2022-11-20T16:04:13;10.00;;;9.50;;
12288;SDS011;6207;49.308;7.336;2022-11-20T16:06:42;9.87;;;9.23;;
12288;SDS011;6207;49.308;7.336;2022-11-20T16:09:09;10.30;;;9.57;;
12288;SDS011;6207;49.308;7.336;2022-11-20T16:11:36;9.67;;;8.90;;
12288;SDS011;6207;49.308;7.336;2022-11-20T16:14:05;9.07;;;8.57;;
12288;SDS011;6207;49.308;7.336;2022-11-20T16:16:55;9.23;;;8.73;;
12288;SDS011;6207;49.308;7.336;2022-11-20T16:19:21;8.77;;;8.07;;
12288;SDS011;6207;49.308;7.336;2022-11-20T16:21:48;8.87;;;8.27;;
12288;SDS011;6207;49.308;7.336;2022-11-20T16:24:15;8.03;;;7.63;;
12288;SDS011;6207;49.308;7.336;2022-11-20T16:26:42;7.90;;;7.40;;
12288;SDS011;6207;49.308;7.336;2022-11-20T16:29:10;8.40;;;7.43;;
12288;SDS011;6207;49.308;7.336;2022-11-20T16:31:38;7.97;;;7.53;;
12288;SDS011;6207;49.308;7.336;2022-11-20T16:34:06;8.00;;;7.50;;
12288;SDS011;6207;49.308;7.336;2022-11-20T16:36:41;8.00;;;7.50;;
12288;SDS011;6207;49.308;7.336;2022-11-20T16:39:12;8.20;;;7.60;;
12288;SDS011;6207;49.308;7.336;2022-11-20T16:41:44;8.00;;;7.40;;